createdAt,value
2018-11-04T00:00:21.277Z,1021.27
2018-11-04T00:01:21.903Z,1021.29
2018-11-04T00:02:22.422Z,1021.26
2018-11-04T00:03:22.995Z,1021.28
2018-11-04T00:04:23.571Z,1021.33
2018-11-04T00:05:24.186Z,1021.20
2018-11-04T00:06:24.813Z,1021.24
2018-11-04T00:07:25.381Z,1021.16
2018-11-04T00:08:25.957Z,1021.21
2018-11-04T00:09:26.532Z,1021.16
2018-11-04T00:10:27.110Z,1021.20
2018-11-04T00:11:27.678Z,1021.18
2018-11-04T00:12:28.264Z,1021.13
2018-11-04T00:13:28.871Z,1021.08
2018-11-04T00:14:29.447Z,1021.10
2018-11-04T00:15:30.018Z,1021.07
2018-11-04T00:16:30.593Z,1021.04
2018-11-04T00:18:15.517Z,1021.04
2018-11-04T00:19:16.139Z,1021.02
2018-11-04T00:20:16.784Z,1021.03
2018-11-04T00:21:17.370Z,1020.97
2018-11-04T00:22:17.942Z,1020.95
2018-11-04T00:23:18.517Z,1021.00
2018-11-04T00:24:19.131Z,1020.96
2018-11-04T00:25:19.746Z,1021.00
2018-11-04T00:26:20.360Z,1020.97
2018-11-04T00:27:21.075Z,1020.98
2018-11-04T00:28:21.554Z,1020.98
2018-11-04T00:29:22.126Z,1020.91
2018-11-04T00:30:22.799Z,1020.90
2018-11-04T00:31:23.472Z,1020.97
2018-11-04T00:32:24.045Z,1020.85
2018-11-04T00:33:24.819Z,1020.92
2018-11-04T00:34:25.390Z,1020.89
2018-11-04T00:35:25.962Z,1020.85
2018-11-04T00:36:26.536Z,1020.87
2018-11-04T00:37:27.109Z,1020.87
2018-11-04T00:38:27.681Z,1020.80
2018-11-04T00:40:12.653Z,1020.72
2018-11-04T00:41:13.266Z,1020.76
2018-11-04T00:42:13.840Z,1020.69
2018-11-04T00:43:14.412Z,1020.66
2018-11-04T00:44:14.985Z,1020.65
2018-11-04T00:45:15.599Z,1020.63
2018-11-04T00:46:16.130Z,1020.58
2018-11-04T00:47:16.704Z,1020.60
2018-11-04T00:48:17.376Z,1020.46
2018-11-04T00:49:17.901Z,1020.46
2018-11-04T00:50:18.474Z,1020.43
2018-11-04T00:51:19.095Z,1020.49
2018-11-04T00:52:19.667Z,1020.43
2018-11-04T00:53:20.243Z,1020.51
2018-11-04T00:54:20.826Z,1020.51
2018-11-04T00:55:21.436Z,1020.52
2018-11-04T00:56:22.053Z,1020.50
2018-11-04T00:57:22.633Z,1020.55
2018-11-04T00:58:23.201Z,1020.40
2018-11-04T00:59:23.776Z,1020.42
2018-11-04T01:00:24.353Z,1020.42
2018-11-04T01:02:09.270Z,1020.39
2018-11-04T01:03:09.842Z,1020.33
2018-11-04T01:04:10.464Z,1020.36
2018-11-04T01:05:11.037Z,1020.34
2018-11-04T01:06:11.612Z,1020.33
2018-11-04T01:07:12.239Z,1020.32
2018-11-04T01:08:12.850Z,1020.34
2018-11-04T01:09:13.489Z,1020.26
2018-11-04T01:10:13.991Z,1020.23
2018-11-04T01:11:14.566Z,1020.22
2018-11-04T01:12:15.138Z,1020.20
2018-11-04T01:13:15.710Z,1020.15
2018-11-04T01:14:16.375Z,1020.08
2018-11-04T01:15:16.946Z,1020.19
2018-11-04T01:16:17.563Z,1020.09
2018-11-04T01:17:18.136Z,1020.05
2018-11-04T01:18:18.708Z,1020.07
2018-11-04T01:19:19.324Z,1020.05
2018-11-04T01:20:19.897Z,1020.00
2018-11-04T01:21:20.469Z,1019.96
2018-11-04T01:22:21.043Z,1019.95
2018-11-04T01:24:05.963Z,1020.03
2018-11-04T01:25:06.533Z,1019.98
2018-11-04T01:26:07.108Z,1019.96
2018-11-04T01:27:07.680Z,1020.01
2018-11-04T01:28:08.301Z,1019.97
2018-11-04T01:29:08.889Z,1019.92
2018-11-04T01:30:09.522Z,1019.84
2018-11-04T01:31:10.067Z,1019.85
2018-11-04T01:32:10.639Z,1019.86
2018-11-04T01:33:11.267Z,1019.89
2018-11-04T01:34:11.834Z,1019.94
2018-11-04T01:35:12.455Z,1019.91
2018-11-04T01:36:13.029Z,1019.92
2018-11-04T01:37:13.602Z,1019.88
2018-11-04T01:38:14.185Z,1019.91
2018-11-04T01:39:14.746Z,1019.84
2018-11-04T01:40:15.319Z,1019.90
2018-11-04T01:41:15.891Z,1019.82
2018-11-04T01:42:16.467Z,1019.77
2018-11-04T01:43:17.080Z,1019.80
2018-11-04T01:44:17.654Z,1019.75
2018-11-04T01:46:02.624Z,1019.74
2018-11-04T01:47:03.194Z,1019.65
2018-11-04T01:48:03.818Z,1019.71
2018-11-04T01:49:04.398Z,1019.60
2018-11-04T01:50:04.966Z,1019.68
2018-11-04T01:51:05.536Z,1019.68
2018-11-04T01:52:06.108Z,1019.62
2018-11-04T01:53:06.733Z,1019.68
2018-11-04T01:54:07.302Z,1019.65
2018-11-04T01:55:07.876Z,1019.67
2018-11-04T01:56:08.450Z,1019.72
2018-11-04T01:57:09.071Z,1019.63
2018-11-04T01:58:09.644Z,1019.65
2018-11-04T01:59:10.215Z,1019.70
2018-11-04T02:00:10.791Z,1019.71
2018-11-04T02:01:11.369Z,1019.64
2018-11-04T02:02:11.977Z,1019.61
2018-11-04T02:03:12.549Z,1019.56
2018-11-04T02:04:13.127Z,1019.55
2018-11-04T02:05:13.845Z,1019.61
2018-11-04T02:06:14.417Z,1019.53
2018-11-04T02:07:59.343Z,1019.49
2018-11-04T02:08:59.911Z,1019.47
2018-11-04T02:10:00.534Z,1019.50
2018-11-04T02:11:01.106Z,1019.49
2018-11-04T02:12:01.679Z,1019.51
2018-11-04T02:13:02.255Z,1019.44
2018-11-04T02:14:02.825Z,1019.47
2018-11-04T02:15:03.399Z,1019.44
2018-11-04T02:16:03.970Z,1019.42
2018-11-04T02:17:04.543Z,1019.42
2018-11-04T02:18:05.116Z,1019.38
2018-11-04T02:19:05.689Z,1019.40
2018-11-04T02:20:06.366Z,1019.27
2018-11-04T02:21:06.992Z,1019.35
2018-11-04T02:22:07.500Z,1019.26
2018-11-04T02:23:08.073Z,1019.18
2018-11-04T02:24:08.700Z,1019.18
2018-11-04T02:25:09.317Z,1019.30
2018-11-04T02:26:09.890Z,1019.20
2018-11-04T02:27:10.464Z,1019.18
2018-11-04T02:28:11.038Z,1019.15
2018-11-04T02:29:56.009Z,1019.06
2018-11-04T02:30:56.581Z,1019.15
2018-11-04T02:31:57.200Z,1019.07
2018-11-04T02:32:57.812Z,1019.04
2018-11-04T02:33:58.388Z,1019.05
2018-11-04T02:34:58.961Z,1019.05
2018-11-04T02:35:59.571Z,1019.05
2018-11-04T02:37:00.185Z,1019.02
2018-11-04T02:38:00.756Z,1019.02
2018-11-04T02:39:01.330Z,1018.98
2018-11-04T02:40:01.901Z,1018.95
2018-11-04T02:41:02.481Z,1019.02
2018-11-04T02:42:03.045Z,1018.97
2018-11-04T02:43:03.617Z,1019.02
2018-11-04T02:44:04.192Z,1018.99
2018-11-04T02:45:04.855Z,1019.02
2018-11-04T02:46:05.476Z,1019.02
2018-11-04T02:47:06.158Z,1019.06
2018-11-04T02:48:06.662Z,1018.99
2018-11-04T02:49:07.285Z,1018.98
2018-11-04T02:50:07.859Z,1018.98
2018-11-04T02:51:52.729Z,1019.00
2018-11-04T02:52:53.302Z,1018.94
2018-11-04T02:53:53.876Z,1018.93
2018-11-04T02:54:54.445Z,1018.86
2018-11-04T02:55:55.015Z,1018.80
2018-11-04T02:56:55.597Z,1018.84
2018-11-04T02:57:56.160Z,1018.88
2018-11-04T02:58:56.731Z,1018.83
2018-11-04T02:59:57.303Z,1018.87
2018-11-04T03:00:57.876Z,1018.80
2018-11-04T03:01:58.456Z,1018.84
2018-11-04T03:02:59.055Z,1018.84
2018-11-04T03:03:59.627Z,1018.79
2018-11-04T03:05:00.249Z,1018.77
2018-11-04T03:06:00.871Z,1018.78
2018-11-04T03:07:01.495Z,1018.71
2018-11-04T03:08:02.067Z,1018.71
2018-11-04T03:09:02.636Z,1018.70
2018-11-04T03:10:03.211Z,1018.66
2018-11-04T03:11:03.783Z,1018.66
2018-11-04T03:12:04.398Z,1018.55
2018-11-04T03:13:49.321Z,1018.48
2018-11-04T03:14:49.899Z,1018.52
2018-11-04T03:15:50.479Z,1018.52
2018-11-04T03:16:51.081Z,1018.51
2018-11-04T03:17:51.641Z,1018.51
2018-11-04T03:18:52.227Z,1018.51
2018-11-04T03:19:52.798Z,1018.52
2018-11-04T03:20:53.378Z,1018.54
2018-11-04T03:21:54.056Z,1018.57
2018-11-04T03:22:54.624Z,1018.57
2018-11-04T03:23:55.252Z,1018.56
2018-11-04T03:24:55.830Z,1018.63
2018-11-04T03:25:56.413Z,1018.58
2018-11-04T03:26:56.987Z,1018.52
2018-11-04T03:27:57.620Z,1018.61
2018-11-04T03:28:58.194Z,1018.52
2018-11-04T03:29:58.781Z,1018.58
2018-11-04T03:30:59.350Z,1018.50
2018-11-04T03:31:59.929Z,1018.54
2018-11-04T03:33:00.518Z,1018.51
2018-11-04T03:34:01.091Z,1018.52
2018-11-04T03:35:46.222Z,1018.51
2018-11-04T03:36:46.799Z,1018.46
2018-11-04T03:37:47.377Z,1018.58
2018-11-04T03:38:47.957Z,1018.49
2018-11-04T03:39:48.583Z,1018.44
2018-11-04T03:40:49.159Z,1018.46
2018-11-04T03:41:49.791Z,1018.46
2018-11-04T03:42:50.365Z,1018.36
2018-11-04T03:43:50.944Z,1018.33
2018-11-04T03:44:51.612Z,1018.29
2018-11-04T03:45:52.191Z,1018.30
2018-11-04T03:46:52.767Z,1018.23
2018-11-04T03:47:53.345Z,1018.28
2018-11-04T03:48:53.924Z,1018.22
2018-11-04T03:49:54.504Z,1018.15
2018-11-04T03:50:55.078Z,1018.12
2018-11-04T03:51:55.658Z,1018.11
2018-11-04T03:52:56.275Z,1018.12
2018-11-04T03:53:56.852Z,1018.09
2018-11-04T03:54:57.429Z,1018.06
2018-11-04T03:55:58.008Z,1018.12
2018-11-04T03:57:43.146Z,1018.00
2018-11-04T03:58:43.724Z,1017.99
2018-11-04T03:59:44.302Z,1018.06
2018-11-04T04:00:45.030Z,1018.07
2018-11-04T04:01:45.606Z,1018.11
2018-11-04T04:02:46.182Z,1018.06
2018-11-04T04:03:46.759Z,1018.17
2018-11-04T04:04:47.485Z,1018.20
2018-11-04T04:05:48.061Z,1018.19
2018-11-04T04:06:48.664Z,1018.14
2018-11-04T04:07:49.256Z,1018.13
2018-11-04T04:08:49.833Z,1018.13
2018-11-04T04:09:50.409Z,1018.14
2018-11-04T04:10:50.985Z,1018.08
2018-11-04T04:11:51.564Z,1018.09
2018-11-04T04:12:52.144Z,1018.01
2018-11-04T04:13:52.722Z,1018.04
2018-11-04T04:14:53.296Z,1018.06
2018-11-04T04:15:53.875Z,1017.97
2018-11-04T04:16:54.451Z,1017.99
2018-11-04T04:17:55.029Z,1017.94
2018-11-04T04:19:40.167Z,1017.91
2018-11-04T04:20:40.743Z,1017.89
2018-11-04T04:21:41.321Z,1017.90
2018-11-04T04:22:41.949Z,1017.83
2018-11-04T04:23:42.525Z,1017.86
2018-11-04T04:24:43.153Z,1017.86
2018-11-04T04:25:43.730Z,1017.77
2018-11-04T04:26:44.304Z,1017.81
2018-11-04T04:27:44.881Z,1017.80
2018-11-04T04:28:45.467Z,1017.76
2018-11-04T04:29:46.081Z,1017.69
2018-11-04T04:30:46.656Z,1017.71
2018-11-04T04:31:47.248Z,1017.67
2018-11-04T04:32:47.852Z,1017.75
2018-11-04T04:33:48.426Z,1017.77
2018-11-04T04:34:49.054Z,1017.67
2018-11-04T04:35:49.630Z,1017.70
2018-11-04T04:36:50.210Z,1017.75
2018-11-04T04:37:50.786Z,1017.73
2018-11-04T04:38:51.459Z,1017.70
2018-11-04T04:39:52.081Z,1017.76
2018-11-04T04:41:37.223Z,1017.75
2018-11-04T04:42:37.798Z,1017.75
2018-11-04T04:43:38.374Z,1017.75
2018-11-04T04:44:38.950Z,1017.70
2018-11-04T04:45:39.525Z,1017.69
2018-11-04T04:46:40.109Z,1017.68
2018-11-04T04:47:40.680Z,1017.77
2018-11-04T04:48:41.253Z,1017.72
2018-11-04T04:49:41.829Z,1017.71
2018-11-04T04:50:42.405Z,1017.70
2018-11-04T04:51:43.030Z,1017.70
2018-11-04T04:52:43.608Z,1017.59
2018-11-04T04:53:44.185Z,1017.66
2018-11-04T04:54:44.762Z,1017.62
2018-11-04T04:55:45.337Z,1017.57
2018-11-04T04:56:45.913Z,1017.63
2018-11-04T04:57:46.491Z,1017.60
2018-11-04T04:58:47.067Z,1017.56
2018-11-04T04:59:47.643Z,1017.69
2018-11-04T05:00:48.219Z,1017.58
2018-11-04T05:01:48.846Z,1017.66
2018-11-04T05:03:33.887Z,1017.70
2018-11-04T05:04:34.511Z,1017.68
2018-11-04T05:05:35.043Z,1017.67
2018-11-04T05:06:35.630Z,1017.67
2018-11-04T05:07:36.247Z,1017.68
2018-11-04T05:08:36.916Z,1017.58
2018-11-04T05:09:37.494Z,1017.62
2018-11-04T05:10:38.071Z,1017.58
2018-11-04T05:11:38.647Z,1017.58
2018-11-04T05:12:39.225Z,1017.49
2018-11-04T05:13:39.804Z,1017.58
2018-11-04T05:14:40.382Z,1017.53
2018-11-04T05:15:40.998Z,1017.53
2018-11-04T05:16:41.575Z,1017.58
2018-11-04T05:17:42.150Z,1017.50
2018-11-04T05:18:42.776Z,1017.55
2018-11-04T05:19:43.355Z,1017.51
2018-11-04T05:20:43.933Z,1017.54
2018-11-04T05:21:44.508Z,1017.59
2018-11-04T05:22:45.090Z,1017.47
2018-11-04T05:23:45.664Z,1017.52
2018-11-04T05:25:30.702Z,1017.51
2018-11-04T05:26:31.328Z,1017.56
2018-11-04T05:27:31.916Z,1017.58
2018-11-04T05:28:32.493Z,1017.52
2018-11-04T05:29:33.109Z,1017.58
2018-11-04T05:30:33.685Z,1017.54
2018-11-04T05:31:34.259Z,1017.52
2018-11-04T05:32:34.835Z,1017.57
2018-11-04T05:33:35.409Z,1017.48
2018-11-04T05:34:36.038Z,1017.46
2018-11-04T05:35:36.656Z,1017.46
2018-11-04T05:36:37.231Z,1017.46
2018-11-04T05:37:37.811Z,1017.32
2018-11-04T05:38:38.387Z,1017.37
2018-11-04T05:39:38.966Z,1017.38
2018-11-04T05:40:39.539Z,1017.31
2018-11-04T05:41:40.117Z,1017.34
2018-11-04T05:42:40.741Z,1017.35
2018-11-04T05:43:41.328Z,1017.38
2018-11-04T05:44:41.909Z,1017.34
2018-11-04T05:45:42.531Z,1017.36
2018-11-04T05:47:27.672Z,1017.36
2018-11-04T05:48:28.248Z,1017.41
2018-11-04T05:49:28.825Z,1017.33
2018-11-04T05:50:29.402Z,1017.31
2018-11-04T05:51:29.976Z,1017.35
2018-11-04T05:52:30.552Z,1017.39
2018-11-04T05:53:31.177Z,1017.39
2018-11-04T05:54:31.753Z,1017.44
2018-11-04T05:55:32.342Z,1017.41
2018-11-04T05:56:32.948Z,1017.42
2018-11-04T05:57:33.528Z,1017.44
2018-11-04T05:58:34.111Z,1017.46
2018-11-04T05:59:34.682Z,1017.40
2018-11-04T06:00:35.259Z,1017.40
2018-11-04T06:01:35.923Z,1017.32
2018-11-04T06:02:36.704Z,1017.32
2018-11-04T06:03:37.280Z,1017.23
2018-11-04T06:04:37.854Z,1017.26
2018-11-04T06:05:38.431Z,1017.30
2018-11-04T06:06:39.008Z,1017.30
2018-11-04T06:07:39.583Z,1017.18
2018-11-04T06:09:24.722Z,1017.11
2018-11-04T06:10:25.298Z,1017.04
2018-11-04T06:11:25.874Z,1017.09
2018-11-04T06:12:26.450Z,1017.11
2018-11-04T06:13:27.025Z,1017.08
2018-11-04T06:14:27.608Z,1017.01
2018-11-04T06:15:28.179Z,1017.01
2018-11-04T06:16:28.793Z,1017.00
2018-11-04T06:17:29.373Z,1017.04
2018-11-04T06:18:29.945Z,1017.03
2018-11-04T06:19:30.536Z,1017.00
2018-11-04T06:20:31.146Z,1016.93
2018-11-04T06:21:31.774Z,1016.93
2018-11-04T06:22:32.350Z,1016.93
2018-11-04T06:23:32.925Z,1016.92
2018-11-04T06:24:33.504Z,1016.92
2018-11-04T06:25:34.082Z,1016.92
2018-11-04T06:26:34.659Z,1016.92
2018-11-04T06:27:35.236Z,1016.92
2018-11-04T06:28:35.814Z,1017.00
2018-11-04T06:29:36.392Z,1016.97
2018-11-04T06:31:21.629Z,1016.95
2018-11-04T06:32:22.242Z,1016.94
2018-11-04T06:33:22.919Z,1016.92
2018-11-04T06:34:23.516Z,1016.85
2018-11-04T06:35:24.172Z,1016.85
2018-11-04T06:36:24.749Z,1016.87
2018-11-04T06:37:25.326Z,1016.90
2018-11-04T06:38:25.898Z,1016.82
2018-11-04T06:39:26.487Z,1016.88
2018-11-04T06:40:27.052Z,1016.78
2018-11-04T06:41:27.629Z,1016.74
2018-11-04T06:42:28.205Z,1016.73
2018-11-04T06:43:28.782Z,1016.72
2018-11-04T06:44:29.360Z,1016.73
2018-11-04T06:45:29.937Z,1016.74
2018-11-04T06:46:30.524Z,1016.81
2018-11-04T06:47:31.108Z,1016.80
2018-11-04T06:48:31.661Z,1016.76
2018-11-04T06:49:32.239Z,1016.78
2018-11-04T06:50:32.818Z,1016.73
2018-11-04T06:51:33.485Z,1016.81
2018-11-04T06:53:18.579Z,1016.77
2018-11-04T06:54:19.202Z,1016.76
2018-11-04T06:55:19.778Z,1016.69
2018-11-04T06:56:20.405Z,1016.71
2018-11-04T06:57:20.982Z,1016.71
2018-11-04T06:58:21.560Z,1016.71
2018-11-04T06:59:22.138Z,1016.71
2018-11-04T07:00:22.715Z,1016.67
2018-11-04T07:01:23.290Z,1016.70
2018-11-04T07:02:23.869Z,1016.74
2018-11-04T07:03:24.485Z,1016.57
2018-11-04T07:04:25.060Z,1016.68
2018-11-04T07:05:25.678Z,1016.57
2018-11-04T07:06:26.255Z,1016.59
2018-11-04T07:07:26.830Z,1016.49
2018-11-04T07:08:27.406Z,1016.49
2018-11-04T07:09:28.033Z,1016.37
2018-11-04T07:10:28.709Z,1016.40
2018-11-04T07:11:29.287Z,1016.37
2018-11-04T07:12:29.871Z,1016.35
2018-11-04T07:13:30.492Z,1016.38
2018-11-04T07:15:15.581Z,1016.44
2018-11-04T07:16:16.159Z,1016.46
2018-11-04T07:17:16.736Z,1016.45
2018-11-04T07:18:17.314Z,1016.43
2018-11-04T07:19:17.890Z,1016.48
2018-11-04T07:20:18.467Z,1016.46
2018-11-04T07:21:19.047Z,1016.56
2018-11-04T07:22:19.616Z,1016.45
2018-11-04T07:23:20.194Z,1016.51
2018-11-04T07:24:20.767Z,1016.43
2018-11-04T07:25:21.386Z,1016.46
2018-11-04T07:26:21.969Z,1016.51
2018-11-04T07:27:22.552Z,1016.56
2018-11-04T07:28:23.124Z,1016.55
2018-11-04T07:29:23.701Z,1016.48
2018-11-04T07:30:24.328Z,1016.61
2018-11-04T07:31:24.904Z,1016.60
2018-11-04T07:32:25.486Z,1016.57
2018-11-04T07:33:26.060Z,1016.48
2018-11-04T07:34:26.687Z,1016.48
2018-11-04T07:35:27.265Z,1016.51
2018-11-04T07:37:12.364Z,1016.42
2018-11-04T07:38:12.975Z,1016.40
2018-11-04T07:39:13.551Z,1016.44
2018-11-04T07:40:14.130Z,1016.45
2018-11-04T07:41:14.707Z,1016.45
2018-11-04T07:42:15.284Z,1016.41
2018-11-04T07:43:15.898Z,1016.48
2018-11-04T07:44:16.569Z,1016.40
2018-11-04T07:45:17.099Z,1016.45
2018-11-04T07:46:17.676Z,1016.45
2018-11-04T07:47:18.255Z,1016.45
2018-11-04T07:48:18.838Z,1016.43
2018-11-04T07:49:19.450Z,1016.42
2018-11-04T07:50:20.038Z,1016.29
2018-11-04T07:51:20.767Z,1016.33
2018-11-04T07:52:21.277Z,1016.28
2018-11-04T07:53:21.855Z,1016.28
2018-11-04T07:54:22.432Z,1016.29
2018-11-04T07:55:23.017Z,1016.35
2018-11-04T07:56:23.585Z,1016.29
2018-11-04T07:57:24.163Z,1016.22
2018-11-04T07:59:09.300Z,1016.05
2018-11-04T08:00:09.884Z,1016.10
2018-11-04T08:01:10.452Z,1016.07
2018-11-04T08:02:11.030Z,1016.10
2018-11-04T08:03:11.657Z,1016.15
2018-11-04T08:04:12.330Z,1016.23
2018-11-04T08:05:12.811Z,1016.12
2018-11-04T08:06:13.381Z,1016.17
2018-11-04T08:07:13.956Z,1016.19
2018-11-04T08:08:14.532Z,1016.14
2018-11-04T08:09:15.109Z,1016.22
2018-11-04T08:10:15.683Z,1016.20
2018-11-04T08:11:16.317Z,1016.19
2018-11-04T08:12:16.885Z,1016.24
2018-11-04T08:13:17.515Z,1016.23
2018-11-04T08:14:18.038Z,1016.18
2018-11-04T08:15:18.617Z,1016.25
2018-11-04T08:16:19.191Z,1016.26
2018-11-04T08:17:19.769Z,1016.26
2018-11-04T08:18:20.439Z,1016.15
2018-11-04T08:19:21.106Z,1016.26
2018-11-04T08:21:06.247Z,1016.31
2018-11-04T08:22:06.783Z,1016.27
2018-11-04T08:23:07.349Z,1016.35
2018-11-04T08:24:07.927Z,1016.21
2018-11-04T08:25:08.502Z,1016.18
2018-11-04T08:26:09.082Z,1016.24
2018-11-04T08:27:09.657Z,1016.24
2018-11-04T08:28:10.235Z,1016.23
2018-11-04T08:29:10.808Z,1016.05
2018-11-04T08:30:11.384Z,1015.98
2018-11-04T08:31:12.012Z,1016.06
2018-11-04T08:32:12.585Z,1016.04
2018-11-04T08:33:13.162Z,1016.09
2018-11-04T08:34:13.739Z,1016.01
2018-11-04T08:35:14.315Z,1015.99
2018-11-04T08:36:14.892Z,1016.02
2018-11-04T08:37:15.473Z,1016.07
2018-11-04T08:38:16.044Z,1016.02
2018-11-04T08:39:16.670Z,1016.04
2018-11-04T08:40:17.376Z,1016.10
2018-11-04T08:41:17.875Z,1016.10
2018-11-04T08:43:02.913Z,1016.20
2018-11-04T08:44:03.492Z,1016.10
2018-11-04T08:45:04.064Z,1016.07
2018-11-04T08:46:04.650Z,1016.04
2018-11-04T08:47:05.306Z,1016.10
2018-11-04T08:48:05.883Z,1016.10
2018-11-04T08:49:06.461Z,1016.10
2018-11-04T08:50:07.041Z,1016.04
2018-11-04T08:51:07.656Z,1016.20
2018-11-04T08:52:08.233Z,1016.14
2018-11-04T08:53:08.809Z,1016.11
2018-11-04T08:54:09.385Z,1016.14
2018-11-04T08:55:10.002Z,1016.15
2018-11-04T08:56:10.578Z,1016.17
2018-11-04T08:57:11.253Z,1016.13
2018-11-04T08:58:11.879Z,1016.15
2018-11-04T08:59:12.455Z,1016.08
2018-11-04T09:00:13.074Z,1016.05
2018-11-04T09:01:13.607Z,1016.07
2018-11-04T09:02:14.186Z,1016.00
2018-11-04T09:03:14.764Z,1015.94
2018-11-04T09:04:59.854Z,1016.03
2018-11-04T09:06:00.631Z,1015.87
2018-11-04T09:07:01.208Z,1015.83
2018-11-04T09:08:01.788Z,1015.86
2018-11-04T09:09:02.359Z,1015.83
2018-11-04T09:10:02.935Z,1015.83
2018-11-04T09:11:03.519Z,1015.78
2018-11-04T09:12:04.086Z,1015.73
2018-11-04T09:13:04.661Z,1015.73
2018-11-04T09:14:05.263Z,1015.67
2018-11-04T09:15:05.857Z,1015.72
2018-11-04T09:16:06.436Z,1015.67
2018-11-04T09:17:07.012Z,1015.70
2018-11-04T09:18:07.641Z,1015.75
2018-11-04T09:19:08.267Z,1015.71
2018-11-04T09:20:08.844Z,1015.68
2018-11-04T09:21:09.424Z,1015.82
2018-11-04T09:22:10.067Z,1015.74
2018-11-04T09:23:10.625Z,1015.67
2018-11-04T09:24:11.202Z,1015.68
2018-11-04T09:25:11.780Z,1015.66
2018-11-04T09:26:56.872Z,1015.63
2018-11-04T09:27:57.448Z,1015.72
2018-11-04T09:28:58.108Z,1015.72
2018-11-04T09:29:58.650Z,1015.63
2018-11-04T09:30:59.226Z,1015.67
2018-11-04T09:31:59.802Z,1015.70
2018-11-04T09:33:00.377Z,1015.70
2018-11-04T09:34:01.004Z,1015.61
2018-11-04T09:35:01.718Z,1015.65
2018-11-04T09:36:02.272Z,1015.59
2018-11-04T09:37:02.775Z,1015.58
2018-11-04T09:38:03.449Z,1015.49
2018-11-04T09:39:04.016Z,1015.47
2018-11-04T09:40:04.594Z,1015.54
2018-11-04T09:41:05.259Z,1015.44
2018-11-04T09:42:05.838Z,1015.46
2018-11-04T09:43:06.416Z,1015.43
2018-11-04T09:44:06.992Z,1015.40
2018-11-04T09:45:07.577Z,1015.41
2018-11-04T09:46:08.146Z,1015.38
2018-11-04T09:47:08.725Z,1015.33
2018-11-04T09:48:53.857Z,1015.28
2018-11-04T09:49:54.518Z,1015.25
2018-11-04T09:50:55.013Z,1015.23
2018-11-04T09:51:55.591Z,1015.25
2018-11-04T09:52:56.167Z,1015.21
2018-11-04T09:53:56.943Z,1015.14
2018-11-04T09:54:57.520Z,1015.07
2018-11-04T09:55:58.099Z,1015.02
2018-11-04T09:56:58.725Z,1015.02
2018-11-04T09:57:59.351Z,1015.10
2018-11-04T09:58:59.931Z,1015.12
2018-11-04T10:00:00.505Z,1015.15
2018-11-04T10:01:01.088Z,1015.23
2018-11-04T10:02:01.661Z,1015.23
2018-11-04T10:03:02.258Z,1015.18
2018-11-04T10:04:02.834Z,1015.17
2018-11-04T10:05:03.409Z,1015.10
2018-11-04T10:06:03.992Z,1015.05
2018-11-04T10:07:04.620Z,1015.01
2018-11-04T10:08:05.142Z,1015.04
2018-11-04T10:09:05.731Z,1015.03
2018-11-04T10:10:50.861Z,1015.00
2018-11-04T10:11:51.443Z,1014.91
2018-11-04T10:12:52.024Z,1014.91
2018-11-04T10:13:52.655Z,1014.96
2018-11-04T10:14:53.236Z,1014.93
2018-11-04T10:15:53.866Z,1014.92
2018-11-04T10:16:54.446Z,1014.81
2018-11-04T10:17:55.076Z,1014.78
2018-11-04T10:18:55.691Z,1014.88
2018-11-04T10:19:56.561Z,1014.89
2018-11-04T10:20:57.127Z,1014.91
2018-11-04T10:21:57.394Z,1014.78
2018-11-04T10:22:58.026Z,1014.78
2018-11-04T10:23:58.648Z,1014.78
2018-11-04T10:24:59.234Z,1014.74
2018-11-04T10:25:59.843Z,1014.70
2018-11-04T10:27:00.389Z,1014.70
2018-11-04T10:28:00.968Z,1014.76
2018-11-04T10:29:01.549Z,1014.73
2018-11-04T10:30:02.140Z,1014.79
2018-11-04T10:31:02.750Z,1014.75
2018-11-04T10:32:47.844Z,1014.76
2018-11-04T10:33:48.424Z,1014.75
2018-11-04T10:34:49.055Z,1014.74
2018-11-04T10:35:49.685Z,1014.78
2018-11-04T10:36:50.266Z,1014.72
2018-11-04T10:37:50.939Z,1014.78
2018-11-04T10:38:51.519Z,1014.78
2018-11-04T10:39:52.143Z,1014.81
2018-11-04T10:40:52.725Z,1014.80
2018-11-04T10:41:53.304Z,1014.80
2018-11-04T10:42:53.884Z,1014.76
2018-11-04T10:43:54.468Z,1014.69
2018-11-04T10:44:55.053Z,1014.68
2018-11-04T10:45:55.634Z,1014.72
2018-11-04T10:46:56.219Z,1014.62
2018-11-04T10:47:56.795Z,1014.60
2018-11-04T10:48:57.385Z,1014.53
2018-11-04T10:49:58.253Z,1014.51
2018-11-04T10:50:58.747Z,1014.58
2018-11-04T10:51:59.326Z,1014.47
2018-11-04T10:52:59.907Z,1014.45
2018-11-04T10:54:45.101Z,1014.45
2018-11-04T10:55:45.748Z,1014.39
2018-11-04T10:56:46.297Z,1014.40
2018-11-04T10:57:46.920Z,1014.43
2018-11-04T10:58:47.502Z,1014.31
2018-11-04T10:59:48.080Z,1014.30
2018-11-04T11:00:48.660Z,1014.25
2018-11-04T11:01:49.242Z,1014.20
2018-11-04T11:02:49.822Z,1014.26
2018-11-04T11:03:50.403Z,1014.16
2018-11-04T11:04:50.984Z,1014.20
2018-11-04T11:05:51.565Z,1014.11
2018-11-04T11:06:52.148Z,1014.18
2018-11-04T11:07:52.728Z,1014.18
2018-11-04T11:08:53.359Z,1014.17
2018-11-04T11:09:53.940Z,1014.17
2018-11-04T11:10:54.617Z,1014.12
2018-11-04T11:11:55.205Z,1014.12
2018-11-04T11:12:55.823Z,1014.02
2018-11-04T11:13:56.404Z,1014.02
2018-11-04T11:14:57.044Z,1013.96
2018-11-04T11:16:42.129Z,1013.94
2018-11-04T11:17:42.710Z,1013.95
2018-11-04T11:18:43.321Z,1013.93
2018-11-04T11:19:43.873Z,1013.95
2018-11-04T11:20:44.495Z,1013.86
2018-11-04T11:21:45.076Z,1013.87
2018-11-04T11:22:45.767Z,1013.80
2018-11-04T11:23:46.277Z,1013.77
2018-11-04T11:24:46.858Z,1013.78
2018-11-04T11:25:47.440Z,1013.80
2018-11-04T11:26:48.025Z,1013.83
2018-11-04T11:27:48.601Z,1013.75
2018-11-04T11:28:49.183Z,1013.76
2018-11-04T11:29:49.813Z,1013.67
2018-11-04T11:30:50.394Z,1013.60
2018-11-04T11:31:51.835Z,1013.55
2018-11-04T11:32:52.458Z,1013.59
2018-11-04T11:33:53.037Z,1013.48
2018-11-04T11:34:53.622Z,1013.44
2018-11-04T11:35:54.243Z,1013.43
2018-11-04T11:36:54.826Z,1013.40
2018-11-04T11:38:39.921Z,1013.30
2018-11-04T11:39:40.503Z,1013.33
2018-11-04T11:40:41.083Z,1013.23
2018-11-04T11:41:41.663Z,1013.17
2018-11-04T11:42:42.245Z,1013.16
2018-11-04T11:43:42.825Z,1013.15
2018-11-04T11:44:43.517Z,1013.15
2018-11-04T11:45:44.075Z,1013.04
2018-11-04T11:46:44.655Z,1013.07
2018-11-04T11:47:45.237Z,1012.99
2018-11-04T11:48:45.816Z,1013.03
2018-11-04T11:49:46.449Z,1012.93
2018-11-04T11:50:47.078Z,1012.92
2018-11-04T11:51:47.722Z,1012.93
2018-11-04T11:52:48.302Z,1012.94
2018-11-04T11:53:48.876Z,1012.88
2018-11-04T11:54:49.458Z,1012.88
2018-11-04T11:55:50.085Z,1012.77
2018-11-04T11:56:50.664Z,1012.76
2018-11-04T11:57:51.247Z,1012.78
2018-11-04T11:58:51.828Z,1012.76
2018-11-04T12:00:36.922Z,1012.64
2018-11-04T12:01:37.503Z,1012.63
2018-11-04T12:02:38.083Z,1012.56
2018-11-04T12:03:38.674Z,1012.58
2018-11-04T12:04:39.247Z,1012.52
2018-11-04T12:05:39.867Z,1012.53
2018-11-04T12:06:40.499Z,1012.36
2018-11-04T12:07:41.081Z,1012.41
2018-11-04T12:08:41.660Z,1012.40
2018-11-04T12:09:42.291Z,1012.39
2018-11-04T12:10:42.877Z,1012.29
2018-11-04T12:11:43.498Z,1012.36
2018-11-04T12:12:44.080Z,1012.30
2018-11-04T12:13:44.713Z,1012.25
2018-11-04T12:14:45.297Z,1012.26
2018-11-04T12:15:45.885Z,1012.24
2018-11-04T12:16:46.468Z,1012.15
2018-11-04T12:17:47.109Z,1012.15
2018-11-04T12:18:47.627Z,1012.12
2018-11-04T12:19:48.204Z,1012.10
2018-11-04T12:20:48.800Z,1012.12
2018-11-04T12:22:33.881Z,1012.05
2018-11-04T12:23:34.525Z,1011.99
2018-11-04T12:24:35.097Z,1011.91
2018-11-04T12:25:35.677Z,1011.80
2018-11-04T12:26:36.258Z,1011.88
2018-11-04T12:27:36.837Z,1011.81
2018-11-04T12:28:37.469Z,1011.82
2018-11-04T12:29:38.050Z,1011.77
2018-11-04T12:30:38.828Z,1011.79
2018-11-04T12:31:39.409Z,1011.78
2018-11-04T12:32:39.992Z,1011.72
2018-11-04T12:33:40.676Z,1011.67
2018-11-04T12:34:41.254Z,1011.60
2018-11-04T12:35:41.845Z,1011.62
2018-11-04T12:36:42.525Z,1011.59
2018-11-04T12:37:43.098Z,1011.53